sensor_id;sensor_type;location;lat;lon;timestamp;pressure;altitude;pressure_sealevel;temperature;humidity
19761;BME280;10039;42.632;23.408;2023-01-30T04:50:26;95129.44;;;0.21;72.59
19761;BME280;10039;42.632;23.408;2023-01-30T13:26:52;94689.31;;;1.51;64.35
19761;BME280;10039;42.632;23.408;2023-01-30T13:30:06;94681.72;;;1.42;65.09
19761;BME280;10039;42.632;23.408;2023-01-30T13:35:57;94657.75;;;1.47;65.62
19761;BME280;10039;42.632;23.408;2023-01-30T14:04:42;94692.28;;;1.86;64.98
19761;BME280;10039;42.632;23.408;2023-01-30T14:07:52;94673.28;;;1.63;65.10
19761;BME280;10039;42.632;23.408;2023-01-30T14:10:49;94671.38;;;1.60;65.47
19761;BME280;10039;42.632;23.408;2023-01-30T14:16:20;94696.09;;;1.92;65.08
19761;BME280;10039;42.632;23.408;2023-01-30T14:38:11;94705.66;;;1.70;65.70
19761;BME280;10039;42.632;23.408;2023-01-30T14:57:05;94678.53;;;1.59;65.70
19761;BME280;10039;42.632;23.408;2023-01-30T15:26:03;94682.38;;;1.72;64.83
19761;BME280;10039;42.632;23.408;2023-01-30T15:52:52;94650.56;;;1.44;65.05
19761;BME280;10039;42.632;23.408;2023-01-30T16:02:36;94671.91;;;1.76;64.44
19761;BME280;10039;42.632;23.408;2023-01-30T16:13:03;94641.91;;;1.80;63.98
19761;BME280;10039;42.632;23.408;2023-01-30T16:16:09;94633.13;;;1.66;63.74
19761;BME280;10039;42.632;23.408;2023-01-30T16:28:33;94639.28;;;1.44;64.68
19761;BME280;10039;42.632;23.408;2023-01-30T16:39:44;94661.16;;;1.51;64.75
19761;BME280;10039;42.632;23.408;2023-01-30T16:42:52;94636.09;;;1.24;64.61
19761;BME280;10039;42.632;23.408;2023-01-30T17:21:50;94623.19;;;1.09;64.87
19761;BME280;10039;42.632;23.408;2023-01-30T17:32:46;94628.84;;;1.11;64.78
19761;BME280;10039;42.632;23.408;2023-01-30T17:35:23;94623.84;;;1.03;64.77
19761;BME280;10039;42.632;23.408;2023-01-30T17:37:58;94637.00;;;1.39;64.64
19761;BME280;10039;42.632;23.408;2023-01-30T17:40:45;94643.94;;;1.21;63.86
19761;BME280;10039;42.632;23.408;2023-01-30T17:43:20;94598.50;;;0.84;64.25
19761;BME280;10039;42.632;23.408;2023-01-30T17:46:08;94618.88;;;0.94;64.12
19761;BME280;10039;42.632;23.408;2023-01-30T17:51:23;94671.00;;;1.25;64.36
19761;BME280;10039;42.632;23.408;2023-01-30T17:57:26;94609.47;;;0.93;63.85
19761;BME280;10039;42.632;23.408;2023-01-30T18:00:17;94626.84;;;1.01;64.51
19761;BME280;10039;42.632;23.408;2023-01-30T18:03:17;94624.59;;;1.03;64.57
19761;BME280;10039;42.632;23.408;2023-01-30T18:06:04;94620.19;;;1.10;64.61
19761;BME280;10039;42.632;23.408;2023-01-30T18:08:34;94634.63;;;1.27;64.39
19761;BME280;10039;42.632;23.408;2023-01-30T18:11:14;94595.00;;;1.06;64.36
19761;BME280;10039;42.632;23.408;2023-01-30T18:14:03;94600.56;;;1.01;63.53
19761;BME280;10039;42.632;23.408;2023-01-30T18:16:57;94623.72;;;1.25;64.15
19761;BME280;10039;42.632;23.408;2023-01-30T18:22:14;94612.31;;;1.14;64.08
19761;BME280;10039;42.632;23.408;2023-01-30T18:27:20;94587.13;;;1.06;64.30
19761;BME280;10039;42.632;23.408;2023-01-30T18:30:07;94588.38;;;0.86;64.36
19761;BME280;10039;42.632;23.408;2023-01-30T18:32:43;94589.28;;;1.01;64.79
19761;BME280;10039;42.632;23.408;2023-01-30T18:35:23;94633.91;;;1.30;64.84
19761;BME280;10039;42.632;23.408;2023-01-30T18:38:04;94637.75;;;1.39;64.68
19761;BME280;10039;42.632;23.408;2023-01-30T18:46:17;94639.28;;;1.44;64.62
19761;BME280;10039;42.632;23.408;2023-01-30T18:48:58;94643.06;;;1.43;65.01
19761;BME280;10039;42.632;23.408;2023-01-30T18:51:56;94641.53;;;1.42;64.89
19761;BME280;10039;42.632;23.408;2023-01-30T19:00:06;94635.03;;;1.32;65.36
19761;BME280;10039;42.632;23.408;2023-01-30T19:08:15;94636.97;;;1.35;64.82
19761;BME280;10039;42.632;23.408;2023-01-30T19:16:23;94627.13;;;1.29;65.17
19761;BME280;10039;42.632;23.408;2023-01-30T19:18:56;94605.78;;;0.98;65.71
19761;BME280;10039;42.632;23.408;2023-01-30T19:21:35;94611.06;;;1.01;66.13
19761;BME280;10039;42.632;23.408;2023-01-30T19:26:47;94591.53;;;0.99;66.14
19761;BME280;10039;42.632;23.408;2023-01-30T19:31:58;94632.38;;;1.29;66.83
19761;BME280;10039;42.632;23.408;2023-01-30T19:34:33;94606.63;;;1.05;66.91
19761;BME280;10039;42.632;23.408;2023-01-30T19:36:59;94591.00;;;0.86;67.04
19761;BME280;10039;42.632;23.408;2023-01-30T19:39:29;94590.06;;;1.01;67.28
19761;BME280;10039;42.632;23.408;2023-01-30T19:41:56;94597.66;;;1.09;67.66
19761;BME280;10039;42.632;23.408;2023-01-30T19:44:24;94568.97;;;0.94;67.72
19761;BME280;10039;42.632;23.408;2023-01-30T19:46:53;94577.97;;;0.93;67.41
19761;BME280;10039;42.632;23.408;2023-01-30T19:49:27;94563.13;;;0.75;67.59
19761;BME280;10039;42.632;23.408;2023-01-30T19:51:56;94594.56;;;1.01;68.17
19761;BME280;10039;42.632;23.408;2023-01-30T19:54:33;94554.66;;;0.88;67.50
19761;BME280;10039;42.632;23.408;2023-01-30T19:57:01;94586.34;;;1.06;67.87
19761;BME280;10039;42.632;23.408;2023-01-30T19:59:28;94590.97;;;1.15;67.44
19761;BME280;10039;42.632;23.408;2023-01-30T20:01:54;94563.72;;;0.94;67.49
19761;BME280;10039;42.632;23.408;2023-01-30T20:04:24;94569.41;;;1.00;67.50
19761;BME280;10039;42.632;23.408;2023-01-30T20:06:53;94574.91;;;0.88;67.90
19761;BME280;10039;42.632;23.408;2023-01-30T20:09:24;94558.88;;;0.63;67.69
19761;BME280;10039;42.632;23.408;2023-01-30T20:11:55;94554.91;;;0.76;68.09
19761;BME280;10039;42.632;23.408;2023-01-30T20:14:21;94558.06;;;0.92;68.00
19761;BME280;10039;42.632;23.408;2023-01-30T20:16:48;94528.59;;;0.69;68.04
19761;BME280;10039;42.632;23.408;2023-01-30T20:19:19;94575.03;;;0.98;67.61
19761;BME280;10039;42.632;23.408;2023-01-30T20:21:52;94531.53;;;0.64;67.55
19761;BME280;10039;42.632;23.408;2023-01-30T20:24:22;94577.25;;;0.96;67.83
19761;BME280;10039;42.632;23.408;2023-01-30T20:26:51;94568.75;;;1.06;67.92
19761;BME280;10039;42.632;23.408;2023-01-30T20:29:21;94538.06;;;0.77;67.81
19761;BME280;10039;42.632;23.408;2023-01-30T20:31:59;94539.69;;;0.92;67.68
19761;BME280;10039;42.632;23.408;2023-01-30T20:34:48;94577.84;;;1.19;66.99
19761;BME280;10039;42.632;23.408;2023-01-30T20:37:15;94570.78;;;1.23;67.48
19761;BME280;10039;42.632;23.408;2023-01-30T20:39:49;94530.38;;;0.98;66.99
19761;BME280;10039;42.632;23.408;2023-01-30T20:42:35;94526.63;;;0.96;66.85
19761;BME280;10039;42.632;23.408;2023-01-30T20:45:05;94560.13;;;1.09;66.97
19761;BME280;10039;42.632;23.408;2023-01-30T20:47:35;94524.38;;;0.65;67.04
19761;BME280;10039;42.632;23.408;2023-01-30T20:50:07;94562.44;;;0.81;67.86
19761;BME280;10039;42.632;23.408;2023-01-30T20:52:38;94538.50;;;0.86;67.17
19761;BME280;10039;42.632;23.408;2023-01-30T20:55:12;94530.53;;;0.76;67.65
19761;BME280;10039;42.632;23.408;2023-01-30T20:57:46;94535.44;;;0.81;67.04
19761;BME280;10039;42.632;23.408;2023-01-30T21:00:21;94529.50;;;0.87;67.18
19761;BME280;10039;42.632;23.408;2023-01-30T21:02:52;94595.59;;;1.29;67.00
19761;BME280;10039;42.632;23.408;2023-01-30T21:05:25;94569.53;;;1.10;66.63
19761;BME280;10039;42.632;23.408;2023-01-30T21:07:59;94590.34;;;1.29;66.84
19761;BME280;10039;42.632;23.408;2023-01-30T21:10:34;94566.44;;;1.01;66.73
19761;BME280;10039;42.632;23.408;2023-01-30T21:13:04;94538.91;;;0.88;67.02
19761;BME280;10039;42.632;23.408;2023-01-30T21:15:33;94562.25;;;0.97;66.93
19761;BME280;10039;42.632;23.408;2023-01-30T21:18:09;94538.50;;;0.86;66.78
19761;BME280;10039;42.632;23.408;2023-01-30T21:20:46;94543.31;;;0.77;67.09
19761;BME280;10039;42.632;23.408;2023-01-30T21:26:00;94523.75;;;0.75;67.46
19761;BME280;10039;42.632;23.408;2023-01-30T21:28:40;94539.63;;;0.85;67.35
19761;BME280;10039;42.632;23.408;2023-01-30T21:31:22;94570.69;;;1.16;67.46
19761;BME280;10039;42.632;23.408;2023-01-30T21:34:02;94531.41;;;0.90;66.84
19761;BME280;10039;42.632;23.408;2023-01-30T21:36:32;94531.41;;;0.87;67.15
19761;BME280;10039;42.632;23.408;2023-01-30T21:39:00;94585.78;;;1.22;67.04
19761;BME280;10039;42.632;23.408;2023-01-30T21:41:51;94518.00;;;0.99;66.81
19761;BME280;10039;42.632;23.408;2023-01-30T21:44:37;94530.50;;;1.12;66.58
19761;BME280;10039;42.632;23.408;2023-01-30T21:47:07;94522.50;;;0.98;66.75
19761;BME280;10039;42.632;23.408;2023-01-30T21:49:36;94523.13;;;0.85;66.63
19761;BME280;10039;42.632;23.408;2023-01-30T21:52:12;94551.88;;;1.07;66.56
19761;BME280;10039;42.632;23.408;2023-01-30T21:54:42;94548.47;;;1.07;66.96
19761;BME280;10039;42.632;23.408;2023-01-30T21:57:20;94525.97;;;0.69;67.15
19761;BME280;10039;42.632;23.408;2023-01-30T21:59:48;94533.50;;;0.74;66.97
19761;BME280;10039;42.632;23.408;2023-01-30T22:02:17;94583.81;;;1.12;67.17
19761;BME280;10039;42.632;23.408;2023-01-30T22:04:50;94535.03;;;0.75;67.50
19761;BME280;10039;42.632;23.408;2023-01-30T22:07:21;94530.13;;;0.74;67.15
19761;BME280;10039;42.632;23.408;2023-01-30T22:09:58;94562.44;;;0.81;67.49
19761;BME280;10039;42.632;23.408;2023-01-30T22:12:27;94528.25;;;0.74;67.33
19761;BME280;10039;42.632;23.408;2023-01-30T22:15:00;94554.00;;;0.98;67.52
19761;BME280;10039;42.632;23.408;2023-01-30T22:17:27;94593.31;;;1.24;67.21
19761;BME280;10039;42.632;23.408;2023-01-30T22:20:01;94557.56;;;1.16;67.23
19761;BME280;10039;42.632;23.408;2023-01-30T22:22:34;94541.28;;;1.00;66.88
19761;BME280;10039;42.632;23.408;2023-01-30T22:25:07;94547.97;;;0.94;66.46
19761;BME280;10039;42.632;23.408;2023-01-30T22:27:38;94552.19;;;1.02;66.44
19761;BME280;10039;42.632;23.408;2023-01-30T22:30:07;94579.19;;;1.39;67.03
19761;BME280;10039;42.632;23.408;2023-01-30T22:32:51;94559.34;;;1.05;66.33
19761;BME280;10039;42.632;23.408;2023-01-30T22:35:22;94566.63;;;1.22;66.90
19761;BME280;10039;42.632;23.408;2023-01-30T22:37:52;94550.44;;;1.16;66.61
19761;BME280;10039;42.632;23.408;2023-01-30T22:40:24;94582.16;;;1.34;66.44
19761;BME280;10039;42.632;23.408;2023-01-30T22:42:57;94531.59;;;1.08;66.29
19761;BME280;10039;42.632;23.408;2023-01-30T22:45:29;94576.97;;;1.41;66.42
19761;BME280;10039;42.632;23.408;2023-01-30T22:48:01;94588.22;;;1.45;66.46
19761;BME280;10039;42.632;23.408;2023-01-30T22:50:33;94557.94;;;1.18;65.95
19761;BME280;10039;42.632;23.408;2023-01-30T22:53:06;94539.75;;;0.96;66.58
19761;BME280;10039;42.632;23.408;2023-01-30T22:55:35;94573.94;;;1.39;66.54
19761;BME280;10039;42.632;23.408;2023-01-30T22:58:07;94582.53;;;1.36;66.58
19761;BME280;10039;42.632;23.408;2023-01-30T23:00:38;94530.91;;;1.14;66.10
19761;BME280;10039;42.632;23.408;2023-01-30T23:03:13;94582.97;;;1.45;66.55
19761;BME280;10039;42.632;23.408;2023-01-30T23:05:55;94548.13;;;1.08;66.75
19761;BME280;10039;42.632;23.408;2023-01-30T23:08:34;94584.53;;;1.49;66.78
19761;BME280;10039;42.632;23.408;2023-01-30T23:11:17;94530.13;;;1.10;66.24
19761;BME280;10039;42.632;23.408;2023-01-30T23:13:51;94534.53;;;0.99;66.62
19761;BME280;10039;42.632;23.408;2023-01-30T23:16:24;94527.53;;;1.13;66.77
19761;BME280;10039;42.632;23.408;2023-01-30T23:18:58;94559.75;;;1.50;66.41
19761;BME280;10039;42.632;23.408;2023-01-30T23:24:09;94533.34;;;1.33;66.32
19761;BME280;10039;42.632;23.408;2023-01-30T23:29:14;94526.50;;;1.25;65.81
19761;BME280;10039;42.632;23.408;2023-01-30T23:31:45;94519.34;;;1.22;66.41
19761;BME280;10039;42.632;23.408;2023-01-30T23:34:17;94522.00;;;1.25;66.33
19761;BME280;10039;42.632;23.408;2023-01-30T23:36:51;94517.44;;;1.19;66.13
19761;BME280;10039;42.632;23.408;2023-01-30T23:39:25;94512.97;;;1.23;65.96
19761;BME280;10039;42.632;23.408;2023-01-30T23:41:55;94502.78;;;1.18;66.02
19761;BME280;10039;42.632;23.408;2023-01-30T23:44:24;94550.78;;;1.55;66.23
19761;BME280;10039;42.632;23.408;2023-01-30T23:46:55;94528.56;;;1.49;66.45
19761;BME280;10039;42.632;23.408;2023-01-30T23:52:06;94495.75;;;1.25;66.72
19761;BME280;10039;42.632;23.408;2023-01-30T23:54:41;94502.25;;;1.42;67.19
19761;BME280;10039;42.632;23.408;2023-01-30T23:57:09;94528.97;;;1.51;66.31
19761;BME280;10039;42.632;23.408;2023-01-30T23:59:38;94485.25;;;1.32;66.53
